Terminal Aerodrome Forecast
Issued by NWS

Home | Current Version | Previous Version | Text Only | Print | Product List | Glossary On
Versions: 1 2 3 4 5 6 7 8 9 10 11 12 13 14 15 16 17 18 19 20 21 22 23
000
FTUS43 KIND 291727
TAFBMG
TAF
KBMG 291727Z 2918/3018 VRB04KT P6SM SCT020 BKN150
     FM291900 30007KT P6SM VCTS BKN040CB
     FM292300 31005KT P6SM SCT035 BKN120
     FM300300 31004KT P6SM SCT250=

USA.gov is the U.S. government's official web portal to all federal, state and local government web resources and services.